sensor_id;sensor_type;location;lat;lon;timestamp;P1;durP1;ratioP1;P2;durP2;ratioP2
28772;SDS011;15925;51.222;5.678;2023-03-20T00:04:42;10.00;;;3.63;;
28772;SDS011;15925;51.222;5.678;2023-03-20T00:07:07;11.73;;;4.13;;
28772;SDS011;15925;51.222;5.678;2023-03-20T00:09:36;11.23;;;4.05;;
28772;SDS011;15925;51.222;5.678;2023-03-20T00:12:03;12.45;;;4.28;;
28772;SDS011;15925;51.222;5.678;2023-03-20T00:14:29;10.30;;;4.57;;
28772;SDS011;15925;51.222;5.678;2023-03-20T00:16:55;12.60;;;4.63;;
28772;SDS011;15925;51.222;5.678;2023-03-20T00:19:25;9.75;;;4.25;;
28772;SDS011;15925;51.222;5.678;2023-03-20T00:21:55;18.10;;;4.07;;
28772;SDS011;15925;51.222;5.678;2023-03-20T00:24:21;8.05;;;4.05;;
28772;SDS011;15925;51.222;5.678;2023-03-20T00:26:48;12.15;;;5.00;;
28772;SDS011;15925;51.222;5.678;2023-03-20T00:29:22;10.98;;;3.85;;
28772;SDS011;15925;51.222;5.678;2023-03-20T00:31:55;7.82;;;3.85;;
28772;SDS011;15925;51.222;5.678;2023-03-20T00:34:22;14.70;;;5.43;;
28772;SDS011;15925;51.222;5.678;2023-03-20T00:36:51;20.17;;;4.95;;
28772;SDS011;15925;51.222;5.678;2023-03-20T00:39:18;12.90;;;5.18;;
28772;SDS011;15925;51.222;5.678;2023-03-20T00:41:48;23.95;;;5.15;;
28772;SDS011;15925;51.222;5.678;2023-03-20T00:44:21;12.10;;;5.80;;
28772;SDS011;15925;51.222;5.678;2023-03-20T00:47:09;12.63;;;4.80;;
28772;SDS011;15925;51.222;5.678;2023-03-20T00:49:36;12.90;;;6.00;;
28772;SDS011;15925;51.222;5.678;2023-03-20T00:52:03;16.13;;;5.13;;
28772;SDS011;15925;51.222;5.678;2023-03-20T00:54:29;9.73;;;4.45;;
28772;SDS011;15925;51.222;5.678;2023-03-20T01:02:32;16.98;;;4.95;;
28772;SDS011;15925;51.222;5.678;2023-03-20T01:04:58;15.52;;;4.95;;
28772;SDS011;15925;51.222;5.678;2023-03-20T01:07:24;16.45;;;4.97;;
28772;SDS011;15925;51.222;5.678;2023-03-20T01:09:50;15.32;;;4.93;;
28772;SDS011;15925;51.222;5.678;2023-03-20T01:12:17;14.18;;;4.95;;
28772;SDS011;15925;51.222;5.678;2023-03-20T01:14:43;16.50;;;5.47;;
28772;SDS011;15925;51.222;5.678;2023-03-20T01:17:17;10.50;;;5.72;;
28772;SDS011;15925;51.222;5.678;2023-03-20T01:19:44;10.82;;;4.47;;
28772;SDS011;15925;51.222;5.678;2023-03-20T01:22:10;17.23;;;6.40;;
28772;SDS011;15925;51.222;5.678;2023-03-20T01:24:38;14.90;;;5.47;;
28772;SDS011;15925;51.222;5.678;2023-03-20T01:27:04;12.15;;;5.32;;
28772;SDS011;15925;51.222;5.678;2023-03-20T01:29:38;9.50;;;3.97;;
28772;SDS011;15925;51.222;5.678;2023-03-20T01:32:06;12.23;;;5.78;;
28772;SDS011;15925;51.222;5.678;2023-03-20T01:34:37;13.38;;;5.47;;
28772;SDS011;15925;51.222;5.678;2023-03-20T01:37:02;28.57;;;7.43;;
28772;SDS011;15925;51.222;5.678;2023-03-20T01:39:34;10.15;;;5.40;;
28772;SDS011;15925;51.222;5.678;2023-03-20T01:42:01;14.88;;;5.55;;
28772;SDS011;15925;51.222;5.678;2023-03-20T01:44:31;20.60;;;5.55;;
28772;SDS011;15925;51.222;5.678;2023-03-20T01:46:58;16.02;;;5.18;;
28772;SDS011;15925;51.222;5.678;2023-03-20T01:51:54;17.90;;;6.13;;
28772;SDS011;15925;51.222;5.678;2023-03-20T01:54:28;15.20;;;4.53;;
28772;SDS011;15925;51.222;5.678;2023-03-20T01:57:12;12.93;;;5.43;;
28772;SDS011;15925;51.222;5.678;2023-03-20T01:59:54;18.17;;;5.97;;
28772;SDS011;15925;51.222;5.678;2023-03-20T02:02:27;18.33;;;7.68;;
28772;SDS011;15925;51.222;5.678;2023-03-20T02:04:56;17.50;;;5.75;;
28772;SDS011;15925;51.222;5.678;2023-03-20T02:07:26;13.15;;;5.35;;
28772;SDS011;15925;51.222;5.678;2023-03-20T02:10:11;10.80;;;4.25;;
28772;SDS011;15925;51.222;5.678;2023-03-20T02:12:54;9.52;;;4.50;;
28772;SDS011;15925;51.222;5.678;2023-03-20T02:15:32;12.93;;;5.35;;
28772;SDS011;15925;51.222;5.678;2023-03-20T02:18:12;12.45;;;4.32;;
28772;SDS011;15925;51.222;5.678;2023-03-20T02:23:21;10.30;;;4.18;;
28772;SDS011;15925;51.222;5.678;2023-03-20T02:42:35;5.95;;;3.08;;
28772;SDS011;15925;51.222;5.678;2023-03-20T02:45:16;10.55;;;3.33;;
28772;SDS011;15925;51.222;5.678;2023-03-20T02:48:14;9.07;;;3.10;;
28772;SDS011;15925;51.222;5.678;2023-03-20T02:53:42;8.95;;;2.83;;
28772;SDS011;15925;51.222;5.678;2023-03-20T02:56:17;9.10;;;3.35;;
28772;SDS011;15925;51.222;5.678;2023-03-20T03:01:31;6.00;;;2.28;;
28772;SDS011;15925;51.222;5.678;2023-03-20T03:04:07;10.07;;;3.70;;
28772;SDS011;15925;51.222;5.678;2023-03-20T03:06:37;7.68;;;2.90;;
28772;SDS011;15925;51.222;5.678;2023-03-20T03:11:44;9.52;;;3.80;;
28772;SDS011;15925;51.222;5.678;2023-03-20T03:14:39;6.03;;;3.17;;
28772;SDS011;15925;51.222;5.678;2023-03-20T03:17:12;4.85;;;2.35;;
28772;SDS011;15925;51.222;5.678;2023-03-20T03:19:42;8.98;;;3.33;;
28772;SDS011;15925;51.222;5.678;2023-03-20T03:22:13;4.95;;;2.95;;
28772;SDS011;15925;51.222;5.678;2023-03-20T03:24:44;7.82;;;2.67;;
28772;SDS011;15925;51.222;5.678;2023-03-20T03:27:13;7.00;;;3.33;;
28772;SDS011;15925;51.222;5.678;2023-03-20T03:29:41;11.80;;;3.55;;
28772;SDS011;15925;51.222;5.678;2023-03-20T03:35:14;6.13;;;3.67;;
28772;SDS011;15925;51.222;5.678;2023-03-20T03:37:53;7.40;;;3.33;;
28772;SDS011;15925;51.222;5.678;2023-03-20T03:41:01;13.20;;;3.53;;
28772;SDS011;15925;51.222;5.678;2023-03-20T03:46:19;5.45;;;2.47;;
28772;SDS011;15925;51.222;5.678;2023-03-20T03:48:55;6.40;;;2.85;;
28772;SDS011;15925;51.222;5.678;2023-03-20T03:51:23;5.60;;;2.20;;
28772;SDS011;15925;51.222;5.678;2023-03-20T03:54:07;8.88;;;3.28;;
28772;SDS011;15925;51.222;5.678;2023-03-20T03:56:49;7.68;;;2.83;;
28772;SDS011;15925;51.222;5.678;2023-03-20T03:59:21;11.85;;;3.88;;
28772;SDS011;15925;51.222;5.678;2023-03-20T04:02:00;4.65;;;3.08;;
28772;SDS011;15925;51.222;5.678;2023-03-20T04:04:30;14.73;;;2.72;;
28772;SDS011;15925;51.222;5.678;2023-03-20T04:06:57;8.10;;;2.67;;
28772;SDS011;15925;51.222;5.678;2023-03-20T04:09:23;9.20;;;4.03;;
28772;SDS011;15925;51.222;5.678;2023-03-20T04:11:49;7.63;;;3.43;;
28772;SDS011;15925;51.222;5.678;2023-03-20T04:14:17;17.52;;;4.07;;
28772;SDS011;15925;51.222;5.678;2023-03-20T04:16:43;5.68;;;2.70;;
28772;SDS011;15925;51.222;5.678;2023-03-20T04:19:10;8.57;;;3.17;;
28772;SDS011;15925;51.222;5.678;2023-03-20T04:21:36;10.77;;;3.67;;
28772;SDS011;15925;51.222;5.678;2023-03-20T04:24:02;19.40;;;4.93;;
28772;SDS011;15925;51.222;5.678;2023-03-20T04:26:28;8.60;;;4.63;;
28772;SDS011;15925;51.222;5.678;2023-03-20T04:28:55;15.93;;;3.78;;
28772;SDS011;15925;51.222;5.678;2023-03-20T04:31:21;13.67;;;4.90;;
28772;SDS011;15925;51.222;5.678;2023-03-20T04:33:57;6.72;;;3.20;;
28772;SDS011;15925;51.222;5.678;2023-03-20T04:36:40;9.90;;;3.78;;
28772;SDS011;15925;51.222;5.678;2023-03-20T04:39:09;15.32;;;4.25;;
28772;SDS011;15925;51.222;5.678;2023-03-20T04:41:34;11.30;;;4.60;;
28772;SDS011;15925;51.222;5.678;2023-03-20T04:44:01;9.63;;;3.80;;
28772;SDS011;15925;51.222;5.678;2023-03-20T04:46:29;6.65;;;3.17;;
28772;SDS011;15925;51.222;5.678;2023-03-20T04:48:54;18.08;;;5.00;;
28772;SDS011;15925;51.222;5.678;2023-03-20T04:51:21;12.50;;;4.88;;
28772;SDS011;15925;51.222;5.678;2023-03-20T04:53:49;9.27;;;3.35;;
28772;SDS011;15925;51.222;5.678;2023-03-20T04:56:15;11.52;;;4.10;;
28772;SDS011;15925;51.222;5.678;2023-03-20T04:58:41;9.17;;;3.73;;
28772;SDS011;15925;51.222;5.678;2023-03-20T05:01:08;7.72;;;3.38;;
28772;SDS011;15925;51.222;5.678;2023-03-20T05:03:34;18.53;;;3.77;;
28772;SDS011;15925;51.222;5.678;2023-03-20T05:06:00;6.80;;;3.20;;
28772;SDS011;15925;51.222;5.678;2023-03-20T05:08:26;17.83;;;2.95;;
28772;SDS011;15925;51.222;5.678;2023-03-20T05:10:56;11.60;;;2.72;;
28772;SDS011;15925;51.222;5.678;2023-03-20T05:13:51;6.13;;;3.00;;
28772;SDS011;15925;51.222;5.678;2023-03-20T05:16:40;10.65;;;3.10;;
28772;SDS011;15925;51.222;5.678;2023-03-20T05:19:17;10.35;;;3.40;;
28772;SDS011;15925;51.222;5.678;2023-03-20T05:21:54;13.95;;;3.38;;
28772;SDS011;15925;51.222;5.678;2023-03-20T05:24:39;16.55;;;4.13;;
28772;SDS011;15925;51.222;5.678;2023-03-20T05:27:13;9.95;;;3.85;;
28772;SDS011;15925;51.222;5.678;2023-03-20T05:29:49;13.07;;;4.18;;
28772;SDS011;15925;51.222;5.678;2023-03-20T05:32:33;9.25;;;3.85;;
28772;SDS011;15925;51.222;5.678;2023-03-20T05:35:27;8.40;;;3.42;;
28772;SDS011;15925;51.222;5.678;2023-03-20T05:38:00;12.52;;;3.00;;
28772;SDS011;15925;51.222;5.678;2023-03-20T05:40:42;8.13;;;3.88;;
28772;SDS011;15925;51.222;5.678;2023-03-20T05:43:33;7.80;;;2.78;;
28772;SDS011;15925;51.222;5.678;2023-03-20T05:46:22;7.22;;;3.72;;
28772;SDS011;15925;51.222;5.678;2023-03-20T05:49:06;13.07;;;4.55;;
28772;SDS011;15925;51.222;5.678;2023-03-20T05:51:51;8.25;;;3.58;;
28772;SDS011;15925;51.222;5.678;2023-03-20T05:54:29;8.25;;;4.03;;
28772;SDS011;15925;51.222;5.678;2023-03-20T05:57:06;8.53;;;3.80;;
28772;SDS011;15925;51.222;5.678;2023-03-20T06:00:07;13.10;;;3.97;;
28772;SDS011;15925;51.222;5.678;2023-03-20T06:03:00;28.95;;;4.55;;
28772;SDS011;15925;51.222;5.678;2023-03-20T06:05:44;13.65;;;3.92;;
28772;SDS011;15925;51.222;5.678;2023-03-20T06:10:36;14.20;;;4.07;;
28772;SDS011;15925;51.222;5.678;2023-03-20T06:13:02;13.30;;;4.43;;
28772;SDS011;15925;51.222;5.678;2023-03-20T06:15:28;12.15;;;4.38;;
28772;SDS011;15925;51.222;5.678;2023-03-20T06:18:02;7.18;;;3.10;;
28772;SDS011;15925;51.222;5.678;2023-03-20T06:20:28;7.03;;;2.95;;
28772;SDS011;15925;51.222;5.678;2023-03-20T06:22:54;18.55;;;4.88;;
28772;SDS011;15925;51.222;5.678;2023-03-20T06:25:22;11.10;;;4.32;;
28772;SDS011;15925;51.222;5.678;2023-03-20T06:27:47;12.53;;;4.17;;
28772;SDS011;15925;51.222;5.678;2023-03-20T06:30:14;14.13;;;4.83;;
28772;SDS011;15925;51.222;5.678;2023-03-20T06:32:42;17.40;;;4.82;;
28772;SDS011;15925;51.222;5.678;2023-03-20T06:35:10;15.95;;;6.07;;
28772;SDS011;15925;51.222;5.678;2023-03-20T06:37:41;9.13;;;4.18;;
28772;SDS011;15925;51.222;5.678;2023-03-20T06:40:12;14.80;;;5.35;;
28772;SDS011;15925;51.222;5.678;2023-03-20T06:42:37;20.40;;;5.37;;
28772;SDS011;15925;51.222;5.678;2023-03-20T06:45:05;13.02;;;3.55;;
28772;SDS011;15925;51.222;5.678;2023-03-20T06:47:54;11.07;;;5.05;;
28772;SDS011;15925;51.222;5.678;2023-03-20T06:50:20;21.02;;;4.35;;
28772;SDS011;15925;51.222;5.678;2023-03-20T06:52:47;14.15;;;4.72;;
28772;SDS011;15925;51.222;5.678;2023-03-20T06:55:33;13.68;;;4.47;;
28772;SDS011;15925;51.222;5.678;2023-03-20T06:57:59;18.83;;;4.80;;
28772;SDS011;15925;51.222;5.678;2023-03-20T07:00:26;14.27;;;4.00;;
28772;SDS011;15925;51.222;5.678;2023-03-20T07:02:52;11.32;;;5.07;;
28772;SDS011;15925;51.222;5.678;2023-03-20T07:05:19;15.10;;;4.47;;
28772;SDS011;15925;51.222;5.678;2023-03-20T07:07:44;12.93;;;4.57;;
28772;SDS011;15925;51.222;5.678;2023-03-20T07:10:11;13.30;;;5.35;;
28772;SDS011;15925;51.222;5.678;2023-03-20T07:12:37;11.95;;;3.75;;
28772;SDS011;15925;51.222;5.678;2023-03-20T07:15:03;15.23;;;4.53;;
28772;SDS011;15925;51.222;5.678;2023-03-20T07:17:30;11.95;;;3.88;;
28772;SDS011;15925;51.222;5.678;2023-03-20T07:19:56;13.80;;;4.53;;
28772;SDS011;15925;51.222;5.678;2023-03-20T07:22:28;15.27;;;3.83;;
28772;SDS011;15925;51.222;5.678;2023-03-20T07:25:13;13.20;;;4.18;;
28772;SDS011;15925;51.222;5.678;2023-03-20T07:27:40;17.67;;;4.72;;
28772;SDS011;15925;51.222;5.678;2023-03-20T07:30:07;8.95;;;4.78;;
28772;SDS011;15925;51.222;5.678;2023-03-20T07:32:34;13.70;;;4.72;;
28772;SDS011;15925;51.222;5.678;2023-03-20T07:35:01;16.00;;;4.68;;
28772;SDS011;15925;51.222;5.678;2023-03-20T07:37:27;10.88;;;4.63;;
28772;SDS011;15925;51.222;5.678;2023-03-20T07:39:58;7.60;;;3.67;;
28772;SDS011;15925;51.222;5.678;2023-03-20T07:42:41;13.10;;;4.78;;
28772;SDS011;15925;51.222;5.678;2023-03-20T07:45:12;15.73;;;4.22;;
28772;SDS011;15925;51.222;5.678;2023-03-20T07:47:43;10.50;;;4.28;;
28772;SDS011;15925;51.222;5.678;2023-03-20T07:50:12;20.27;;;4.82;;
28772;SDS011;15925;51.222;5.678;2023-03-20T07:52:44;14.85;;;4.70;;
28772;SDS011;15925;51.222;5.678;2023-03-20T07:55:11;11.45;;;4.38;;
28772;SDS011;15925;51.222;5.678;2023-03-20T07:57:37;9.55;;;3.03;;
28772;SDS011;15925;51.222;5.678;2023-03-20T08:00:03;11.30;;;3.85;;
28772;SDS011;15925;51.222;5.678;2023-03-20T08:02:36;7.60;;;2.83;;
28772;SDS011;15925;51.222;5.678;2023-03-20T08:05:02;10.90;;;4.40;;
28772;SDS011;15925;51.222;5.678;2023-03-20T08:07:28;14.23;;;4.28;;
28772;SDS011;15925;51.222;5.678;2023-03-20T08:09:54;12.43;;;3.50;;
28772;SDS011;15925;51.222;5.678;2023-03-20T08:12:20;8.90;;;4.13;;
28772;SDS011;15925;51.222;5.678;2023-03-20T08:14:46;17.30;;;4.40;;
28772;SDS011;15925;51.222;5.678;2023-03-20T08:17:12;13.60;;;2.93;;
28772;SDS011;15925;51.222;5.678;2023-03-20T08:19:38;17.83;;;3.17;;
28772;SDS011;15925;51.222;5.678;2023-03-20T08:22:03;18.43;;;4.17;;
28772;SDS011;15925;51.222;5.678;2023-03-20T08:24:29;17.25;;;3.83;;
28772;SDS011;15925;51.222;5.678;2023-03-20T08:26:55;19.23;;;4.20;;
28772;SDS011;15925;51.222;5.678;2023-03-20T08:29:21;12.15;;;2.83;;
28772;SDS011;15925;51.222;5.678;2023-03-20T08:31:47;17.35;;;4.15;;
28772;SDS011;15925;51.222;5.678;2023-03-20T08:34:13;8.77;;;3.47;;
28772;SDS011;15925;51.222;5.678;2023-03-20T08:36:40;7.32;;;2.25;;
28772;SDS011;15925;51.222;5.678;2023-03-20T08:39:06;6.63;;;2.00;;
28772;SDS011;15925;51.222;5.678;2023-03-20T08:41:33;5.40;;;2.25;;
28772;SDS011;15925;51.222;5.678;2023-03-20T08:44:02;4.57;;;2.15;;
28772;SDS011;15925;51.222;5.678;2023-03-20T08:46:27;2.23;;;1.83;;
28772;SDS011;15925;51.222;5.678;2023-03-20T08:48:53;20.23;;;2.50;;
28772;SDS011;15925;51.222;5.678;2023-03-20T08:51:19;7.47;;;2.97;;
28772;SDS011;15925;51.222;5.678;2023-03-20T08:53:45;20.48;;;2.60;;
28772;SDS011;15925;51.222;5.678;2023-03-20T08:56:11;8.13;;;2.93;;
28772;SDS011;15925;51.222;5.678;2023-03-20T08:58:37;7.83;;;2.47;;
28772;SDS011;15925;51.222;5.678;2023-03-20T09:01:06;4.57;;;1.45;;
28772;SDS011;15925;51.222;5.678;2023-03-20T09:03:33;7.60;;;2.65;;
28772;SDS011;15925;51.222;5.678;2023-03-20T09:06:00;9.77;;;2.08;;
28772;SDS011;15925;51.222;5.678;2023-03-20T09:08:29;3.40;;;1.23;;
28772;SDS011;15925;51.222;5.678;2023-03-20T09:10:56;8.68;;;2.40;;
28772;SDS011;15925;51.222;5.678;2023-03-20T09:13:22;4.27;;;1.30;;
28772;SDS011;15925;51.222;5.678;2023-03-20T09:15:49;10.35;;;2.05;;
28772;SDS011;15925;51.222;5.678;2023-03-20T09:18:16;3.55;;;1.48;;
28772;SDS011;15925;51.222;5.678;2023-03-20T09:20:42;6.22;;;1.60;;
28772;SDS011;15925;51.222;5.678;2023-03-20T09:25:35;2.55;;;1.25;;
28772;SDS011;15925;51.222;5.678;2023-03-20T09:28:01;10.97;;;1.63;;
28772;SDS011;15925;51.222;5.678;2023-03-20T09:30:26;11.70;;;2.53;;
28772;SDS011;15925;51.222;5.678;2023-03-20T09:32:52;2.43;;;1.13;;
28772;SDS011;15925;51.222;5.678;2023-03-20T09:35:18;9.00;;;1.90;;
28772;SDS011;15925;51.222;5.678;2023-03-20T09:37:45;3.72;;;1.98;;
28772;SDS011;15925;51.222;5.678;2023-03-20T09:40:27;12.70;;;2.10;;
28772;SDS011;15925;51.222;5.678;2023-03-20T09:43:01;3.28;;;1.65;;
28772;SDS011;15925;51.222;5.678;2023-03-20T09:51:35;3.72;;;1.75;;
28772;SDS011;15925;51.222;5.678;2023-03-20T09:54:25;18.30;;;2.42;;
28772;SDS011;15925;51.222;5.678;2023-03-20T09:57:01;6.15;;;2.05;;
28772;SDS011;15925;51.222;5.678;2023-03-20T09:59:27;10.13;;;2.05;;
28772;SDS011;15925;51.222;5.678;2023-03-20T10:04:38;13.10;;;1.63;;
28772;SDS011;15925;51.222;5.678;2023-03-20T10:07:08;3.65;;;1.23;;
28772;SDS011;15925;51.222;5.678;2023-03-20T10:09:37;5.20;;;1.52;;
28772;SDS011;15925;51.222;5.678;2023-03-20T10:12:07;9.43;;;2.10;;
28772;SDS011;15925;51.222;5.678;2023-03-20T10:15:02;6.85;;;1.33;;
28772;SDS011;15925;51.222;5.678;2023-03-20T10:17:43;2.78;;;1.17;;
28772;SDS011;15925;51.222;5.678;2023-03-20T10:20:28;3.70;;;1.60;;
28772;SDS011;15925;51.222;5.678;2023-03-20T10:26:11;6.82;;;1.10;;
28772;SDS011;15925;51.222;5.678;2023-03-20T10:28:56;3.45;;;1.23;;
28772;SDS011;15925;51.222;5.678;2023-03-20T10:42:27;23.30;;;1.70;;
28772;SDS011;15925;51.222;5.678;2023-03-20T10:44:59;4.32;;;1.42;;
28772;SDS011;15925;51.222;5.678;2023-03-20T10:47:32;10.45;;;1.67;;
28772;SDS011;15925;51.222;5.678;2023-03-20T10:50:02;11.73;;;1.77;;
28772;SDS011;15925;51.222;5.678;2023-03-20T10:52:32;14.35;;;1.80;;
28772;SDS011;15925;51.222;5.678;2023-03-20T10:55:03;6.85;;;1.70;;
28772;SDS011;15925;51.222;5.678;2023-03-20T10:57:37;8.18;;;1.80;;
28772;SDS011;15925;51.222;5.678;2023-03-20T11:00:17;4.68;;;1.50;;
28772;SDS011;15925;51.222;5.678;2023-03-20T11:05:20;6.80;;;1.52;;
28772;SDS011;15925;51.222;5.678;2023-03-20T11:07:47;10.23;;;1.75;;
28772;SDS011;15925;51.222;5.678;2023-03-20T11:10:26;11.88;;;2.42;;
28772;SDS011;15925;51.222;5.678;2023-03-20T11:17:59;7.57;;;1.50;;
28772;SDS011;15925;51.222;5.678;2023-03-20T11:20:31;8.75;;;1.45;;
28772;SDS011;15925;51.222;5.678;2023-03-20T11:23:02;4.40;;;1.20;;
28772;SDS011;15925;51.222;5.678;2023-03-20T11:25:33;6.97;;;2.03;;
28772;SDS011;15925;51.222;5.678;2023-03-20T11:28:19;5.13;;;2.00;;
28772;SDS011;15925;51.222;5.678;2023-03-20T11:30:45;6.55;;;2.00;;
28772;SDS011;15925;51.222;5.678;2023-03-20T11:33:12;7.65;;;2.95;;
28772;SDS011;15925;51.222;5.678;2023-03-20T11:35:43;5.80;;;1.92;;
28772;SDS011;15925;51.222;5.678;2023-03-20T11:38:19;2.47;;;1.17;;
28772;SDS011;15925;51.222;5.678;2023-03-20T11:40:46;4.20;;;1.55;;
28772;SDS011;15925;51.222;5.678;2023-03-20T11:43:14;8.02;;;1.48;;
28772;SDS011;15925;51.222;5.678;2023-03-20T11:45:48;8.23;;;1.83;;
28772;SDS011;15925;51.222;5.678;2023-03-20T11:48:19;10.30;;;1.45;;
28772;SDS011;15925;51.222;5.678;2023-03-20T11:51:03;5.78;;;1.23;;
28772;SDS011;15925;51.222;5.678;2023-03-20T11:53:35;5.82;;;1.90;;
28772;SDS011;15925;51.222;5.678;2023-03-20T12:00:57;4.88;;;1.67;;
28772;SDS011;15925;51.222;5.678;2023-03-20T12:03:33;10.05;;;1.65;;
28772;SDS011;15925;51.222;5.678;2023-03-20T12:06:16;6.72;;;2.47;;
28772;SDS011;15925;51.222;5.678;2023-03-20T12:08:56;6.50;;;1.92;;
28772;SDS011;15925;51.222;5.678;2023-03-20T12:11:44;1.83;;;1.20;;
28772;SDS011;15925;51.222;5.678;2023-03-20T12:14:48;5.72;;;2.08;;
28772;SDS011;15925;51.222;5.678;2023-03-20T12:17:28;5.43;;;1.60;;
28772;SDS011;15925;51.222;5.678;2023-03-20T12:20:05;8.07;;;2.03;;
28772;SDS011;15925;51.222;5.678;2023-03-20T12:22:42;8.85;;;1.90;;
28772;SDS011;15925;51.222;5.678;2023-03-20T12:25:28;6.70;;;2.22;;
28772;SDS011;15925;51.222;5.678;2023-03-20T12:31:28;8.98;;;2.03;;
28772;SDS011;15925;51.222;5.678;2023-03-20T12:36:43;4.82;;;1.65;;
28772;SDS011;15925;51.222;5.678;2023-03-20T12:39:12;7.65;;;2.63;;
28772;SDS011;15925;51.222;5.678;2023-03-20T12:47:12;25.45;;;2.78;;
28772;SDS011;15925;51.222;5.678;2023-03-20T12:57:52;3.85;;;2.17;;
28772;SDS011;15925;51.222;5.678;2023-03-20T13:00:29;6.60;;;1.40;;
28772;SDS011;15925;51.222;5.678;2023-03-20T13:03:18;8.60;;;1.20;;
28772;SDS011;15925;51.222;5.678;2023-03-20T13:05:51;4.82;;;1.75;;
28772;SDS011;15925;51.222;5.678;2023-03-20T13:13:38;4.32;;;1.33;;
28772;SDS011;15925;51.222;5.678;2023-03-20T13:19:15;7.15;;;1.67;;
28772;SDS011;15925;51.222;5.678;2023-03-20T13:22:01;10.85;;;2.67;;
28772;SDS011;15925;51.222;5.678;2023-03-20T13:24:37;5.75;;;1.67;;
28772;SDS011;15925;51.222;5.678;2023-03-20T13:29:59;7.50;;;2.25;;
28772;SDS011;15925;51.222;5.678;2023-03-20T13:37:41;5.30;;;1.55;;
28772;SDS011;15925;51.222;5.678;2023-03-20T14:01:37;17.83;;;2.05;;
28772;SDS011;15925;51.222;5.678;2023-03-20T14:04:22;4.18;;;1.63;;
28772;SDS011;15925;51.222;5.678;2023-03-20T14:06:50;25.67;;;1.50;;
28772;SDS011;15925;51.222;5.678;2023-03-20T14:11:51;3.60;;;0.88;;
28772;SDS011;15925;51.222;5.678;2023-03-20T14:14:23;1.80;;;0.75;;
28772;SDS011;15925;51.222;5.678;2023-03-20T14:17:02;1.45;;;1.25;;
28772;SDS011;15925;51.222;5.678;2023-03-20T14:19:36;7.75;;;1.35;;
28772;SDS011;15925;51.222;5.678;2023-03-20T14:22:02;3.28;;;0.93;;
28772;SDS011;15925;51.222;5.678;2023-03-20T14:24:29;1.45;;;0.90;;
28772;SDS011;15925;51.222;5.678;2023-03-20T14:27:01;9.93;;;1.85;;
28772;SDS011;15925;51.222;5.678;2023-03-20T14:29:31;16.08;;;1.88;;
28772;SDS011;15925;51.222;5.678;2023-03-20T14:32:03;3.25;;;1.08;;
28772;SDS011;15925;51.222;5.678;2023-03-20T14:38:00;4.40;;;1.50;;
28772;SDS011;15925;51.222;5.678;2023-03-20T14:40:28;1.65;;;0.90;;
28772;SDS011;15925;51.222;5.678;2023-03-20T14:43:03;6.18;;;2.08;;
28772;SDS011;15925;51.222;5.678;2023-03-20T14:45:40;2.25;;;1.20;;
28772;SDS011;15925;51.222;5.678;2023-03-20T14:48:29;2.35;;;1.10;;
28772;SDS011;15925;51.222;5.678;2023-03-20T14:56:46;4.45;;;1.35;;
28772;SDS011;15925;51.222;5.678;2023-03-20T14:59:13;4.50;;;1.55;;
28772;SDS011;15925;51.222;5.678;2023-03-20T15:01:44;6.80;;;1.13;;
28772;SDS011;15925;51.222;5.678;2023-03-20T15:06:50;4.00;;;1.17;;
28772;SDS011;15925;51.222;5.678;2023-03-20T15:09:22;6.22;;;2.10;;
28772;SDS011;15925;51.222;5.678;2023-03-20T15:11:51;5.95;;;0.88;;
28772;SDS011;15925;51.222;5.678;2023-03-20T15:16:49;9.20;;;1.40;;
28772;SDS011;15925;51.222;5.678;2023-03-20T15:19:22;10.77;;;1.77;;
28772;SDS011;15925;51.222;5.678;2023-03-20T15:21:48;4.45;;;1.10;;
28772;SDS011;15925;51.222;5.678;2023-03-20T15:24:20;4.53;;;1.47;;
28772;SDS011;15925;51.222;5.678;2023-03-20T15:27:08;6.43;;;0.70;;
28772;SDS011;15925;51.222;5.678;2023-03-20T15:29:36;7.32;;;1.52;;
28772;SDS011;15925;51.222;5.678;2023-03-20T15:32:02;3.17;;;1.03;;
28772;SDS011;15925;51.222;5.678;2023-03-20T15:34:29;8.75;;;2.40;;
28772;SDS011;15925;51.222;5.678;2023-03-20T15:36:58;11.32;;;2.08;;
28772;SDS011;15925;51.222;5.678;2023-03-20T15:39:27;5.38;;;1.00;;
28772;SDS011;15925;51.222;5.678;2023-03-20T15:41:55;15.48;;;2.22;;
28772;SDS011;15925;51.222;5.678;2023-03-20T15:44:24;5.03;;;1.90;;
28772;SDS011;15925;51.222;5.678;2023-03-20T15:46:58;6.68;;;1.42;;
28772;SDS011;15925;51.222;5.678;2023-03-20T15:49:27;10.20;;;1.50;;
28772;SDS011;15925;51.222;5.678;2023-03-20T15:51:56;6.70;;;1.88;;
28772;SDS011;15925;51.222;5.678;2023-03-20T15:54:32;8.60;;;1.57;;
28772;SDS011;15925;51.222;5.678;2023-03-20T15:57:01;8.65;;;1.75;;
28772;SDS011;15925;51.222;5.678;2023-03-20T15:59:30;8.10;;;2.53;;
28772;SDS011;15925;51.222;5.678;2023-03-20T16:01:58;6.45;;;1.92;;
28772;SDS011;15925;51.222;5.678;2023-03-20T16:04:25;8.20;;;2.25;;
28772;SDS011;15925;51.222;5.678;2023-03-20T16:06:53;6.90;;;1.60;;
28772;SDS011;15925;51.222;5.678;2023-03-20T16:09:21;11.10;;;1.63;;
28772;SDS011;15925;51.222;5.678;2023-03-20T16:14:21;2.85;;;1.85;;
28772;SDS011;15925;51.222;5.678;2023-03-20T16:16:49;7.22;;;2.00;;
28772;SDS011;15925;51.222;5.678;2023-03-20T16:19:17;12.43;;;1.77;;
28772;SDS011;15925;51.222;5.678;2023-03-20T16:21:45;12.02;;;1.50;;
28772;SDS011;15925;51.222;5.678;2023-03-20T16:24:17;18.02;;;3.33;;
28772;SDS011;15925;51.222;5.678;2023-03-20T16:26:55;12.77;;;2.05;;
28772;SDS011;15925;51.222;5.678;2023-03-20T16:29:22;6.60;;;1.85;;
28772;SDS011;15925;51.222;5.678;2023-03-20T16:31:54;5.18;;;1.65;;
28772;SDS011;15925;51.222;5.678;2023-03-20T16:34:31;5.25;;;1.63;;
28772;SDS011;15925;51.222;5.678;2023-03-20T16:37:02;10.00;;;2.53;;
28772;SDS011;15925;51.222;5.678;2023-03-20T16:39:32;9.48;;;1.75;;
28772;SDS011;15925;51.222;5.678;2023-03-20T16:44:36;3.05;;;1.40;;
28772;SDS011;15925;51.222;5.678;2023-03-20T16:47:17;14.70;;;2.65;;
28772;SDS011;15925;51.222;5.678;2023-03-20T16:49:49;17.52;;;2.17;;
28772;SDS011;15925;51.222;5.678;2023-03-20T16:52:15;5.10;;;1.50;;
28772;SDS011;15925;51.222;5.678;2023-03-20T16:54:52;5.70;;;2.08;;
28772;SDS011;15925;51.222;5.678;2023-03-20T16:57:21;8.60;;;2.22;;
28772;SDS011;15925;51.222;5.678;2023-03-20T16:59:47;10.20;;;2.30;;
28772;SDS011;15925;51.222;5.678;2023-03-20T17:02:29;5.22;;;2.03;;
28772;SDS011;15925;51.222;5.678;2023-03-20T17:05:01;4.32;;;2.30;;
28772;SDS011;15925;51.222;5.678;2023-03-20T17:07:28;11.13;;;2.33;;
28772;SDS011;15925;51.222;5.678;2023-03-20T17:15:02;7.13;;;1.88;;
28772;SDS011;15925;51.222;5.678;2023-03-20T17:17:28;15.00;;;2.75;;
28772;SDS011;15925;51.222;5.678;2023-03-20T17:19:54;6.43;;;2.30;;
28772;SDS011;15925;51.222;5.678;2023-03-20T17:22:21;10.60;;;3.17;;
28772;SDS011;15925;51.222;5.678;2023-03-20T17:24:49;10.95;;;1.85;;
28772;SDS011;15925;51.222;5.678;2023-03-20T17:27:15;12.57;;;1.90;;
28772;SDS011;15925;51.222;5.678;2023-03-20T17:29:42;14.73;;;2.20;;
28772;SDS011;15925;51.222;5.678;2023-03-20T17:32:09;14.75;;;2.33;;
28772;SDS011;15925;51.222;5.678;2023-03-20T17:34:36;18.45;;;2.67;;
28772;SDS011;15925;51.222;5.678;2023-03-20T17:37:02;7.53;;;2.08;;
28772;SDS011;15925;51.222;5.678;2023-03-20T17:39:28;5.33;;;2.63;;
28772;SDS011;15925;51.222;5.678;2023-03-20T17:41:54;15.82;;;2.38;;
28772;SDS011;15925;51.222;5.678;2023-03-20T17:44:20;9.55;;;1.90;;
28772;SDS011;15925;51.222;5.678;2023-03-20T17:46:46;8.80;;;1.98;;
28772;SDS011;15925;51.222;5.678;2023-03-20T17:49:14;17.92;;;2.03;;
28772;SDS011;15925;51.222;5.678;2023-03-20T17:51:41;8.30;;;1.95;;
28772;SDS011;15925;51.222;5.678;2023-03-20T17:54:08;11.68;;;2.00;;
28772;SDS011;15925;51.222;5.678;2023-03-20T17:56:34;7.03;;;1.90;;